createdAt,value
2023-01-19T00:01:43.237Z,96146.66
2023-01-19T00:04:11.232Z,96151.42
2023-01-19T00:06:39.372Z,96157.20
2023-01-19T00:09:07.285Z,96164.03
2023-01-19T00:11:35.396Z,96164.95
2023-01-19T00:14:03.607Z,96161.92
2023-01-19T00:16:31.662Z,96155.02
2023-01-19T00:18:59.746Z,96154.18
2023-01-19T00:21:27.766Z,96154.96
2023-01-19T00:23:55.748Z,96144.22
2023-01-19T00:26:23.825Z,96159.56
2023-01-19T00:28:53.053Z,96164.16
2023-01-19T00:31:21.835Z,96163.31
2023-01-19T00:33:51.570Z,96143.20
2023-01-19T00:36:19.951Z,96152.48
2023-01-19T00:38:48.078Z,96157.84
2023-01-19T00:41:16.661Z,96163.45
2023-01-19T00:43:45.012Z,96164.13
2023-01-19T00:46:13.197Z,96164.71
2023-01-19T00:48:41.445Z,96158.94
2023-01-19T00:51:09.527Z,96154.77
2023-01-19T00:53:37.677Z,96154.08
2023-01-19T00:56:06.109Z,96153.86
2023-01-19T00:58:34.126Z,96148.15
2023-01-19T01:01:04.805Z,96149.48
2023-01-19T01:03:33.092Z,96145.50
2023-01-19T01:06:01.192Z,96137.03
2023-01-19T01:08:30.330Z,96126.08
2023-01-19T01:10:58.479Z,96122.37
2023-01-19T01:13:27.904Z,96122.05
2023-01-19T01:15:57.140Z,96117.63
2023-01-19T01:18:26.355Z,96117.29
2023-01-19T01:21:05.058Z,96108.86
2023-01-19T01:23:33.965Z,96107.70
2023-01-19T01:26:02.208Z,96101.34
2023-01-19T01:28:30.109Z,96100.20
2023-01-19T01:30:58.289Z,96096.90
2023-01-19T01:33:40.026Z,96096.19
2023-01-19T01:36:11.815Z,96089.83
2023-01-19T01:38:41.421Z,96091.87
2023-01-19T01:41:10.127Z,96086.41
2023-01-19T01:43:45.712Z,96073.52
2023-01-19T01:46:18.044Z,96067.63
2023-01-19T01:48:57.813Z,96072.62
2023-01-19T01:51:31.742Z,96074.41
2023-01-19T01:54:08.954Z,96074.23
2023-01-19T01:56:43.836Z,96075.01
2023-01-19T01:59:40.416Z,96079.69
2023-01-19T02:02:32.048Z,96078.44
2023-01-19T02:05:05.825Z,96080.64
2023-01-19T02:08:02.327Z,96075.69
2023-01-19T02:10:49.875Z,96074.75
2023-01-19T02:13:21.759Z,96071.34
2023-01-19T02:16:02.997Z,96064.90
2023-01-19T02:18:32.415Z,96071.61
2023-01-19T02:21:07.590Z,96051.03
2023-01-19T02:23:44.045Z,96042.56
2023-01-19T02:26:16.406Z,96048.83
2023-01-19T02:28:53.381Z,96041.92
2023-01-19T02:31:21.544Z,96047.11
2023-01-19T02:33:49.966Z,96062.82
2023-01-19T02:36:23.045Z,96063.68
2023-01-19T02:38:53.688Z,96072.52
2023-01-19T02:41:26.461Z,96070.20
2023-01-19T02:43:56.908Z,96067.67
2023-01-19T02:46:25.970Z,96069.91
2023-01-19T02:48:59.114Z,96073.23
2023-01-19T02:51:32.317Z,96078.27
2023-01-19T02:54:24.160Z,96067.59
2023-01-19T02:57:11.291Z,96053.20
2023-01-19T02:59:53.438Z,96055.15
2023-01-19T03:02:33.992Z,96061.86
2023-01-19T03:05:03.928Z,96059.53
2023-01-19T03:08:08.088Z,96050.30
2023-01-19T03:10:38.995Z,96047.65
2023-01-19T03:13:13.669Z,96045.33
2023-01-19T03:15:47.950Z,96045.59
2023-01-19T03:18:20.549Z,96041.39
2023-01-19T03:20:51.272Z,96046.73
2023-01-19T03:23:22.433Z,96048.61
2023-01-19T03:25:53.366Z,96055.20
2023-01-19T03:28:25.363Z,96054.01
2023-01-19T03:30:59.013Z,96047.91
2023-01-19T03:33:33.075Z,96048.95
2023-01-19T03:36:10.447Z,96048.23
2023-01-19T03:38:42.757Z,96050.77
2023-01-19T03:41:15.569Z,96054.27
2023-01-19T03:43:45.327Z,96060.20
2023-01-19T03:46:17.516Z,96063.58
2023-01-19T03:48:47.292Z,96068.46
2023-01-19T03:51:17.248Z,96068.90
2023-01-19T03:53:46.603Z,96070.19
2023-01-19T03:56:23.704Z,96065.56
2023-01-19T03:58:52.428Z,96064.67
2023-01-19T04:01:23.098Z,96066.95
2023-01-19T04:03:52.947Z,96070.28
2023-01-19T04:06:21.100Z,96067.00
2023-01-19T04:08:51.243Z,96065.89
2023-01-19T04:11:19.518Z,96056.12
2023-01-19T04:13:48.140Z,96045.91
2023-01-19T04:16:20.157Z,96048.59
2023-01-19T04:18:48.773Z,96047.23
2023-01-19T04:21:17.322Z,96039.67
2023-01-19T04:23:46.126Z,96042.17
2023-01-19T04:26:14.430Z,96041.69
2023-01-19T04:28:42.949Z,96041.25
2023-01-19T04:31:10.994Z,96050.14
2023-01-19T04:33:39.053Z,96053.52
2023-01-19T04:36:07.635Z,96050.88
2023-01-19T04:38:37.018Z,96048.58
2023-01-19T04:41:05.409Z,96051.20
2023-01-19T04:43:33.852Z,96053.91
2023-01-19T04:46:03.025Z,96053.27
2023-01-19T04:48:31.853Z,96065.06
2023-01-19T04:50:59.975Z,96081.33
2023-01-19T04:53:27.961Z,96088.03
2023-01-19T04:55:56.281Z,96090.24
2023-01-19T04:58:24.409Z,96089.50
2023-01-19T05:00:54.112Z,96096.02
2023-01-19T05:03:22.725Z,96104.10
2023-01-19T05:05:51.746Z,96109.61
2023-01-19T05:08:19.822Z,96108.14
2023-01-19T05:10:48.569Z,96108.54
2023-01-19T05:13:17.347Z,96108.52
2023-01-19T05:15:45.977Z,96108.07
2023-01-19T05:18:14.152Z,96107.91
2023-01-19T05:20:42.622Z,96115.10
2023-01-19T05:23:10.812Z,96125.88
2023-01-19T05:25:38.948Z,96133.60
2023-01-19T05:28:07.253Z,96133.98
2023-01-19T05:30:35.208Z,96136.15
2023-01-19T05:33:04.267Z,96134.86
2023-01-19T05:35:36.293Z,96138.34
2023-01-19T05:38:04.736Z,96141.51
2023-01-19T05:40:32.843Z,96148.16
2023-01-19T05:43:04.800Z,96145.05
2023-01-19T05:45:33.370Z,96148.59
2023-01-19T05:48:02.425Z,96147.38
2023-01-19T05:50:30.468Z,96155.27
2023-01-19T05:53:00.421Z,96153.09
2023-01-19T05:55:28.949Z,96148.95
2023-01-19T05:57:57.170Z,96144.92
2023-01-19T06:00:27.697Z,96147.36
2023-01-19T06:02:56.055Z,96142.55
2023-01-19T06:05:24.274Z,96140.55
2023-01-19T06:07:52.669Z,96142.35
2023-01-19T06:10:20.754Z,96140.70
2023-01-19T06:12:49.395Z,96141.16
2023-01-19T06:15:17.722Z,96147.79
2023-01-19T06:17:45.974Z,96137.27
2023-01-19T06:20:15.295Z,96139.59
2023-01-19T06:22:43.518Z,96136.39
2023-01-19T06:25:13.106Z,96138.80
2023-01-19T06:27:45.531Z,96142.35
2023-01-19T06:30:14.070Z,96148.27
2023-01-19T06:32:42.110Z,96151.80
2023-01-19T06:35:10.551Z,96152.43
2023-01-19T06:37:38.562Z,96147.03
2023-01-19T06:40:07.788Z,96137.96
2023-01-19T06:42:36.033Z,96130.27
2023-01-19T06:47:58.487Z,96134.85
2023-01-19T06:50:27.105Z,96136.46
2023-01-19T06:52:55.234Z,96141.70
2023-01-19T06:55:23.597Z,96139.58
2023-01-19T06:57:59.779Z,96143.63
2023-01-19T07:00:29.108Z,96135.45
2023-01-19T07:02:57.202Z,96135.70
2023-01-19T07:05:25.555Z,96142.11
2023-01-19T07:07:55.368Z,96146.94
2023-01-19T07:10:24.789Z,96138.17
2023-01-19T07:12:53.341Z,96129.38
2023-01-19T07:15:23.105Z,96119.23
2023-01-19T07:17:52.167Z,96117.57
2023-01-19T07:20:20.380Z,96115.27
2023-01-19T07:22:56.024Z,96101.52
2023-01-19T07:25:24.493Z,96111.11
2023-01-19T07:27:56.573Z,96122.56
2023-01-19T07:30:24.503Z,96125.84
2023-01-19T07:32:55.148Z,96132.86
2023-01-19T07:35:23.807Z,96122.70
2023-01-19T07:37:52.194Z,96122.09
2023-01-19T07:40:23.297Z,96127.46
2023-01-19T07:42:52.658Z,96121.98
2023-01-19T07:45:21.631Z,96118.06
2023-01-19T07:47:50.351Z,96119.37
2023-01-19T07:50:21.515Z,96128.81
2023-01-19T07:52:53.574Z,96127.34
2023-01-19T07:55:23.380Z,96129.70
2023-01-19T07:57:52.631Z,96136.95
2023-01-19T08:00:26.634Z,96137.11
2023-01-19T08:03:00.762Z,96138.28
2023-01-19T08:05:29.566Z,96145.59
2023-01-19T08:07:58.705Z,96143.83
2023-01-19T08:10:28.623Z,96139.56
2023-01-19T08:12:58.318Z,96140.29
2023-01-19T08:15:26.831Z,96136.65
2023-01-19T08:17:57.067Z,96134.36
2023-01-19T08:20:25.833Z,96129.73
2023-01-19T08:23:03.106Z,96125.08
2023-01-19T08:25:34.102Z,96129.19
2023-01-19T08:28:05.339Z,96132.26
2023-01-19T08:30:33.757Z,96126.52
2023-01-19T08:33:08.154Z,96123.59
2023-01-19T08:35:40.746Z,96123.04
2023-01-19T08:38:09.928Z,96124.73
2023-01-19T08:40:40.479Z,96123.55
2023-01-19T08:43:14.736Z,96117.73
2023-01-19T08:45:48.914Z,96119.52
2023-01-19T08:48:19.416Z,96114.05
2023-01-19T08:50:49.089Z,96113.64
2023-01-19T08:53:21.231Z,96111.34
2023-01-19T08:55:50.076Z,96106.92
2023-01-19T08:58:18.379Z,96108.38
2023-01-19T09:00:46.660Z,96108.48
2023-01-19T09:03:15.174Z,96107.66
2023-01-19T09:05:43.344Z,96107.00
2023-01-19T09:08:13.382Z,96092.47
2023-01-19T09:10:50.357Z,96089.27
2023-01-19T09:13:20.180Z,96098.64
2023-01-19T09:15:48.830Z,96100.69
2023-01-19T09:18:20.228Z,96099.42
2023-01-19T09:20:49.865Z,96091.98
2023-01-19T09:23:22.902Z,96089.21
2023-01-19T09:26:00.143Z,96077.02
2023-01-19T09:28:29.452Z,96076.86
2023-01-19T09:30:58.888Z,96082.06
2023-01-19T09:33:27.790Z,96084.41
2023-01-19T09:35:56.797Z,96083.77
2023-01-19T09:38:26.003Z,96091.41
2023-01-19T09:40:59.135Z,96092.23
2023-01-19T09:43:49.110Z,96093.54
2023-01-19T09:46:27.690Z,96099.73
2023-01-19T09:48:59.903Z,96099.98
2023-01-19T09:51:32.920Z,96100.73
2023-01-19T09:54:18.052Z,96098.61
2023-01-19T09:56:50.684Z,96090.13
2023-01-19T09:59:29.419Z,96079.29
2023-01-19T10:02:06.987Z,96067.20
2023-01-19T10:04:42.840Z,96069.96
2023-01-19T10:07:25.309Z,96058.03
2023-01-19T10:10:01.342Z,96058.39
2023-01-19T10:12:32.107Z,96065.89
2023-01-19T10:15:30.798Z,96067.95
2023-01-19T10:18:17.294Z,96076.04
2023-01-19T10:20:51.243Z,96074.20
2023-01-19T10:23:33.344Z,96075.48
2023-01-19T10:26:05.024Z,96070.71
2023-01-19T10:28:35.065Z,96067.91
2023-01-19T10:31:07.071Z,96066.88
2023-01-19T10:33:36.770Z,96058.88
2023-01-19T10:36:29.902Z,96050.70
2023-01-19T10:38:58.808Z,96046.57
2023-01-19T10:41:40.564Z,96045.81
2023-01-19T10:44:10.893Z,96046.45
2023-01-19T10:46:48.900Z,96039.94
2023-01-19T10:49:26.748Z,96039.65
2023-01-19T10:51:57.696Z,96042.73
2023-01-19T10:54:28.048Z,96045.92
2023-01-19T10:57:10.336Z,96045.04
2023-01-19T10:59:45.254Z,96044.45
2023-01-19T11:02:26.699Z,96047.21
2023-01-19T11:04:58.857Z,96054.70
2023-01-19T11:07:26.987Z,96057.48
2023-01-19T11:10:20.886Z,96061.34
2023-01-19T11:13:04.352Z,96059.23
2023-01-19T11:15:43.082Z,96054.34
2023-01-19T11:18:30.357Z,96050.55
2023-01-19T11:21:02.396Z,96052.39
2023-01-19T11:23:37.756Z,96054.17
2023-01-19T11:26:06.566Z,96052.61
2023-01-19T11:28:37.891Z,96059.42
2023-01-19T11:31:15.349Z,96064.14
2023-01-19T11:33:43.678Z,96061.73
2023-01-19T11:36:33.569Z,96052.24
2023-01-19T11:39:24.388Z,96037.77
2023-01-19T11:41:57.171Z,96042.02
2023-01-19T11:44:33.729Z,96045.45
2023-01-19T11:47:12.419Z,96046.45
2023-01-19T11:50:07.039Z,96043.61
2023-01-19T11:52:43.226Z,96048.02
2023-01-19T11:55:34.237Z,96052.66
2023-01-19T11:58:03.480Z,96053.76
2023-01-19T12:00:58.589Z,96053.59
2023-01-19T12:03:46.861Z,96070.73
2023-01-19T12:06:22.778Z,96070.92
2023-01-19T12:08:59.472Z,96072.64
2023-01-19T12:11:44.716Z,96074.21
2023-01-19T12:14:32.150Z,96070.48
2023-01-19T12:17:05.773Z,96080.15
2023-01-19T12:19:54.891Z,96089.91
2023-01-19T12:22:24.080Z,96081.59
2023-01-19T12:25:10.788Z,96080.42
2023-01-19T12:27:48.294Z,96075.96
2023-01-19T12:30:23.927Z,96073.01
2023-01-19T12:33:22.960Z,96067.30
2023-01-19T12:35:55.734Z,96084.05
2023-01-19T12:38:30.095Z,96092.16
2023-01-19T12:41:16.882Z,96091.52
2023-01-19T12:43:45.068Z,96097.96
2023-01-19T12:46:31.008Z,96096.82
2023-01-19T12:49:29.412Z,96105.20
2023-01-19T12:52:19.735Z,96115.83
2023-01-19T12:54:58.089Z,96127.20
2023-01-19T12:57:34.350Z,96128.35
2023-01-19T13:00:30.255Z,96125.17
2023-01-19T13:03:04.701Z,96128.49
2023-01-19T13:05:33.551Z,96137.26
2023-01-19T13:08:01.744Z,96140.89
2023-01-19T13:11:05.447Z,96145.74
2023-01-19T13:13:50.480Z,96146.98
2023-01-19T13:16:19.869Z,96141.66
2023-01-19T13:18:58.962Z,96124.52
2023-01-19T13:21:32.063Z,96119.07
2023-01-19T13:24:06.168Z,96117.03
2023-01-19T13:26:53.259Z,96119.46
2023-01-19T13:29:31.903Z,96120.82
2023-01-19T13:32:04.125Z,96131.17
2023-01-19T13:34:40.438Z,96137.91
2023-01-19T13:37:18.971Z,96131.42
2023-01-19T13:39:51.564Z,96125.16
2023-01-19T13:42:26.042Z,96120.09
2023-01-19T13:44:58.446Z,96125.13
2023-01-19T13:47:39.469Z,96131.67
2023-01-19T13:50:20.419Z,96137.50
2023-01-19T13:52:54.023Z,96133.97
2023-01-19T13:55:23.912Z,96139.02
2023-01-19T13:57:52.144Z,96138.23
2023-01-19T14:00:22.144Z,96136.99
2023-01-19T14:02:59.411Z,96142.51
2023-01-19T14:05:44.207Z,96145.11
2023-01-19T14:08:15.463Z,96154.25
2023-01-19T14:11:02.726Z,96162.21
2023-01-19T14:13:40.255Z,96174.36
2023-01-19T14:16:15.820Z,96180.16
2023-01-19T14:18:43.924Z,96184.86
2023-01-19T14:21:14.753Z,96188.44
2023-01-19T14:23:45.998Z,96188.39
2023-01-19T14:26:53.873Z,96189.77
2023-01-19T14:29:32.905Z,96193.05
2023-01-19T14:32:04.621Z,96196.73
2023-01-19T14:34:41.477Z,96208.46
2023-01-19T14:37:12.491Z,96208.19
2023-01-19T14:39:45.493Z,96202.16
2023-01-19T14:42:27.202Z,96205.09
2023-01-19T14:44:59.441Z,96203.39
2023-01-19T14:47:29.682Z,96201.46
2023-01-19T14:50:20.715Z,96200.88
2023-01-19T14:52:54.796Z,96202.19
2023-01-19T14:55:33.578Z,96197.21
2023-01-19T14:58:03.707Z,96193.66
2023-01-19T15:00:33.413Z,96184.84
2023-01-19T15:03:03.197Z,96186.53
2023-01-19T15:05:35.215Z,96186.85
2023-01-19T15:08:04.612Z,96196.52
2023-01-19T15:10:33.316Z,96206.95
2023-01-19T15:13:01.764Z,96207.23
2023-01-19T15:15:35.011Z,96206.45
2023-01-19T15:18:06.705Z,96206.65
2023-01-19T15:20:35.070Z,96210.64
2023-01-19T15:23:03.273Z,96218.14
2023-01-19T15:25:31.604Z,96221.41
2023-01-19T15:28:00.413Z,96227.90
2023-01-19T15:30:33.667Z,96228.88
2023-01-19T15:33:02.506Z,96230.08
2023-01-19T15:35:32.599Z,96232.73
2023-01-19T15:38:00.823Z,96236.87
2023-01-19T15:40:29.108Z,96238.48
2023-01-19T15:42:57.742Z,96238.27
2023-01-19T15:45:43.688Z,96247.91
2023-01-19T15:48:12.135Z,96261.60
2023-01-19T15:50:45.275Z,96274.27
2023-01-19T15:53:15.835Z,96277.70
2023-01-19T15:55:49.496Z,96285.68
2023-01-19T15:58:18.623Z,96290.04
2023-01-19T16:00:55.057Z,96300.37
2023-01-19T16:03:24.692Z,96306.98
2023-01-19T16:05:53.096Z,96314.21
2023-01-19T16:08:22.207Z,96317.64
2023-01-19T16:10:50.568Z,96324.08
2023-01-19T16:13:18.578Z,96329.39
2023-01-19T16:15:46.783Z,96339.05
2023-01-19T16:18:17.916Z,96349.42
2023-01-19T16:20:46.299Z,96355.33
2023-01-19T16:23:15.787Z,96352.38
2023-01-19T16:25:45.094Z,96358.09
2023-01-19T16:28:13.253Z,96367.28
2023-01-19T16:30:41.679Z,96372.33
2023-01-19T16:33:11.811Z,96371.56
2023-01-19T16:36:04.506Z,96376.15
2023-01-19T16:38:32.707Z,96379.03
2023-01-19T16:41:00.869Z,96380.28
2023-01-19T16:43:28.897Z,96380.17
2023-01-19T16:46:01.790Z,96377.15
2023-01-19T16:48:32.875Z,96379.48
2023-01-19T16:51:06.151Z,96373.73
2023-01-19T16:53:35.509Z,96362.38
2023-01-19T16:56:12.773Z,96365.90
2023-01-19T16:58:41.952Z,96364.01
2023-01-19T17:01:13.298Z,96336.77
2023-01-19T17:03:42.168Z,96323.84
2023-01-19T17:06:18.153Z,96331.27
2023-01-19T17:08:47.270Z,96345.30
2023-01-19T17:11:23.261Z,96353.90
2023-01-19T17:14:00.343Z,96365.48
2023-01-19T17:16:32.010Z,96375.94
2023-01-19T17:19:04.245Z,96383.13
2023-01-19T17:21:32.980Z,96390.15
2023-01-19T17:24:02.157Z,96391.15
2023-01-19T17:26:34.034Z,96387.09
2023-01-19T17:29:05.029Z,96391.73
2023-01-19T17:31:34.575Z,96394.56
2023-01-19T17:34:03.701Z,96403.59
2023-01-19T17:36:33.549Z,96404.95
2023-01-19T17:39:12.023Z,96399.36
2023-01-19T17:41:41.016Z,96405.25
2023-01-19T17:44:10.455Z,96420.90
2023-01-19T17:46:39.228Z,96428.79
2023-01-19T17:49:08.647Z,96426.85
2023-01-19T17:51:40.566Z,96423.29
2023-01-19T17:54:10.871Z,96426.38
2023-01-19T17:56:41.414Z,96439.84
2023-01-19T17:59:09.947Z,96447.80
2023-01-19T18:01:40.528Z,96443.34
2023-01-19T18:04:09.558Z,96440.94
2023-01-19T18:06:39.102Z,96448.92
2023-01-19T18:09:08.346Z,96453.83
2023-01-19T18:11:36.742Z,96455.76
2023-01-19T18:14:06.170Z,96455.27
2023-01-19T18:16:35.906Z,96458.73
2023-01-19T18:19:04.149Z,96466.56
2023-01-19T18:21:35.301Z,96474.89
2023-01-19T18:24:05.322Z,96482.23
2023-01-19T18:26:35.047Z,96482.16
2023-01-19T18:29:05.762Z,96481.66
2023-01-19T18:31:34.623Z,96481.73
2023-01-19T18:34:03.197Z,96484.38
2023-01-19T18:36:32.666Z,96490.94
2023-01-19T18:39:01.578Z,96497.52
2023-01-19T18:41:30.241Z,96506.52
2023-01-19T18:43:59.013Z,96511.23
2023-01-19T18:46:28.187Z,96511.42
2023-01-19T18:48:56.420Z,96523.77
2023-01-19T18:51:25.205Z,96525.77
2023-01-19T18:53:53.633Z,96526.04
2023-01-19T18:56:21.912Z,96520.23
2023-01-19T18:58:50.242Z,96521.88
2023-01-19T19:01:21.799Z,96524.42
2023-01-19T19:03:50.551Z,96515.59
2023-01-19T19:06:20.981Z,96514.36
2023-01-19T19:08:53.842Z,96522.13
2023-01-19T19:11:23.815Z,96527.34
2023-01-19T19:13:57.225Z,96523.25
2023-01-19T19:16:25.499Z,96522.98
2023-01-19T19:18:53.874Z,96513.17
2023-01-19T19:21:26.742Z,96501.05
2023-01-19T19:23:57.104Z,96492.20
2023-01-19T19:26:28.300Z,96487.95
2023-01-19T19:28:56.767Z,96492.67
2023-01-19T19:31:26.951Z,96490.09
2023-01-19T19:33:57.268Z,96497.38
2023-01-19T19:36:28.508Z,96500.77
2023-01-19T19:38:59.338Z,96510.23
2023-01-19T19:41:29.036Z,96509.31
2023-01-19T19:43:57.147Z,96511.46
2023-01-19T19:46:26.890Z,96516.09
2023-01-19T19:48:55.954Z,96517.30
2023-01-19T19:51:27.320Z,96520.02
2023-01-19T19:53:58.757Z,96526.40
2023-01-19T19:56:29.895Z,96519.94
2023-01-19T19:58:59.671Z,96516.67
2023-01-19T20:01:32.961Z,96516.67
2023-01-19T20:04:10.817Z,96521.98
2023-01-19T20:06:41.922Z,96517.49
2023-01-19T20:09:12.946Z,96518.91
2023-01-19T20:11:42.373Z,96517.77
2023-01-19T20:14:14.439Z,96518.27
2023-01-19T20:16:42.757Z,96520.30
2023-01-19T20:19:11.191Z,96519.91
2023-01-19T20:21:44.001Z,96518.16
2023-01-19T20:24:18.454Z,96522.79
2023-01-19T20:26:52.005Z,96527.82
2023-01-19T20:29:20.600Z,96529.85
2023-01-19T20:31:54.988Z,96533.46
2023-01-19T20:34:29.127Z,96538.23
2023-01-19T20:36:58.074Z,96540.48
2023-01-19T20:39:26.485Z,96537.95
2023-01-19T20:41:54.745Z,96539.87
2023-01-19T20:44:25.387Z,96546.34
2023-01-19T20:46:54.729Z,96552.52
2023-01-19T20:49:23.673Z,96560.19
2023-01-19T20:51:53.413Z,96563.25
2023-01-19T20:54:27.440Z,96559.57
2023-01-19T20:56:57.344Z,96559.31
2023-01-19T20:59:26.311Z,96562.06
2023-01-19T21:01:55.343Z,96566.12
2023-01-19T21:04:23.564Z,96567.42
2023-01-19T21:06:52.433Z,96567.11
2023-01-19T21:09:21.802Z,96567.83
2023-01-19T21:11:49.894Z,96576.78
2023-01-19T21:14:18.175Z,96572.67
2023-01-19T21:16:46.248Z,96563.59
2023-01-19T21:19:14.458Z,96561.83
2023-01-19T21:21:42.903Z,96570.99
2023-01-19T21:24:11.924Z,96569.16
2023-01-19T21:26:41.860Z,96573.08
2023-01-19T21:29:13.403Z,96582.55
2023-01-19T21:31:42.334Z,96578.05
2023-01-19T21:34:10.374Z,96576.48
2023-01-19T21:36:38.602Z,96590.99
2023-01-19T21:39:08.290Z,96606.09
2023-01-19T21:41:38.217Z,96611.70
2023-01-19T21:44:06.358Z,96609.94
2023-01-19T21:46:34.608Z,96602.23
2023-01-19T21:49:05.811Z,96597.66
2023-01-19T21:51:35.837Z,96594.83
2023-01-19T21:54:05.773Z,96592.91
2023-01-19T21:56:35.897Z,96588.19
2023-01-19T21:59:04.819Z,96588.48
2023-01-19T22:01:34.467Z,96596.61
2023-01-19T22:04:02.666Z,96607.05
2023-01-19T22:06:30.905Z,96606.96
2023-01-19T22:09:00.705Z,96600.63
2023-01-19T22:11:29.178Z,96594.10
2023-01-19T22:13:59.723Z,96592.59
2023-01-19T22:16:29.949Z,96581.38
2023-01-19T22:19:02.015Z,96577.77
2023-01-19T22:21:33.211Z,96577.15
2023-01-19T22:24:03.043Z,96578.63
2023-01-19T22:26:34.302Z,96582.08
2023-01-19T22:29:04.056Z,96576.09
2023-01-19T22:31:32.363Z,96574.52
2023-01-19T22:34:00.591Z,96580.45
2023-01-19T22:36:35.788Z,96580.19
2023-01-19T22:39:09.365Z,96573.24
2023-01-19T22:41:47.060Z,96575.56
2023-01-19T22:44:17.943Z,96575.02
2023-01-19T22:46:46.082Z,96574.16
2023-01-19T22:49:16.624Z,96572.42
2023-01-19T22:51:45.523Z,96565.59
2023-01-19T22:54:14.237Z,96556.88
2023-01-19T22:56:42.943Z,96554.95
2023-01-19T22:59:11.198Z,96558.02
2023-01-19T23:01:42.281Z,96566.36
2023-01-19T23:04:15.700Z,96572.42
2023-01-19T23:06:46.890Z,96580.17
2023-01-19T23:09:15.062Z,96580.30
2023-01-19T23:11:45.590Z,96588.20
2023-01-19T23:14:15.958Z,96586.39
2023-01-19T23:16:44.741Z,96581.25
2023-01-19T23:19:13.795Z,96574.73
2023-01-19T23:21:41.786Z,96579.23
2023-01-19T23:24:10.241Z,96584.94
2023-01-19T23:26:38.926Z,96578.42
2023-01-19T23:29:09.928Z,96568.77
2023-01-19T23:31:39.355Z,96567.11
2023-01-19T23:34:09.681Z,96569.23
2023-01-19T23:36:39.505Z,96566.60
2023-01-19T23:39:13.340Z,96564.10
2023-01-19T23:41:41.582Z,96565.63
2023-01-19T23:44:09.874Z,96578.02
2023-01-19T23:46:38.195Z,96584.94
2023-01-19T23:49:06.554Z,96583.70
2023-01-19T23:51:34.948Z,96581.34
2023-01-19T23:54:03.338Z,96579.41
2023-01-19T23:56:36.359Z,96580.21
2023-01-19T23:59:10.544Z,96581.31
